Marietta, OK (73448)

4:47 PM CST on January 31, 2015 (GMT -0600)
Ardmore Downtown | Change Station
CLOSE
Current Station
Airport
Location: Ardmore Downtown,
Elevation: 843 ft
Nearby Weather Stations

Elev 843 ft 34.15 °N, 97.12 °W | Updated 12 minutes ago

Rain
Rain
43 °F
Feels Like 39 °F
N
7
Wind Variable Wind from SE

Today
High -- | Low -- °F
--% Chance of Precip.
Yesterday
High -- | Low -- °F
Precip. -- in
7:26 AM 5:58 PM
Waxing Gibbous, 92% visible
Pressure 29.98 in
Visibility 3.0 miles
Clouds Scattered Clouds 3200 ft
Mostly Cloudy 4200 ft
Overcast 5000 ft
Windchill 39 °F
Dew Point 41 °F
Humidity 93%
Rainfall 0.25 in
Snow Depth Not available.
UV 0 out of 12
Pollen 7.00 out of 12
Air Quality Not available.
Flu Activity Not available.
METAR K1F0 312235Z AUTO 14006KT 3SM -RA SCT032 BKN042 OVC050 06/05 A2998 RMK AO2 P0013

More Conditions Fewer Conditions

Pressure 29.98 in
Visibility 3.0 miles
Clouds Scattered Clouds 3200 ft
Mostly Cloudy 4200 ft
Overcast 5000 ft
Windchill 39 °F
Dew Point 41 °F
Humidity 93%
Rainfall 0.25 in
Snow Depth Not available.
UV 0 out of 12
Pollen 7.00 out of 12
Air Quality Not available.
Flu Activity Not available.
METAR K1F0 312235Z AUTO 14006KT 3SM -RA SCT032 BKN042 OVC050 06/05 A2998 RMK AO2 P0013

More Conditions Fewer Conditions

10-Day Weather Forecast

Almanac

Astronomy

Jan. 31, 2015 Rise Set
Actual Time
Civil Twilight
Nautical Twilight
Astronomical Twilight
Moon
Length of Visible Light
Length of Day
Tomorrow will be .
, % of the Moon is Illuminated

Today's Extremes

State Highs State Lows

Community

WunderPhotos

Upload Photos

1,792,239 photos uploaded!

WunderBlogs® & News

Nearby

Air Quality

  Air Quality AQ Index Pollutant
Not available.

Snow Depth

Station Depth Elevation

Earthquake Activity

City Distance Mag. Time & Date
Minimum magnitude displayed is 2.5.

Coastal Water Temperatures

Place Temperature

Nearby Weather Stations